sensor_id;sensor_type;location;lat;lon;timestamp;P1;P2;P0
57798;PMS7003;43626;53.866;30.298;2023-05-10T00:01:41;57;42.6;26.6
57798;PMS7003;43626;53.866;30.298;2023-05-10T00:06:45;56.6;44.4;27
57798;PMS7003;43626;53.866;30.298;2023-05-10T00:11:21;55.8;43.2;26.6
57798;PMS7003;43626;53.866;30.298;2023-05-10T00:16:57;55.8;43;25.6
57798;PMS7003;43626;53.866;30.298;2023-05-10T00:21:45;54.6;41.8;25.8
57798;PMS7003;43626;53.866;30.298;2023-05-10T00:27:07;51.6;39.2;24.4
57798;PMS7003;43626;53.866;30.298;2023-05-10T00:31:47;52;40;25
57798;PMS7003;43626;53.866;30.298;2023-05-10T00:36:21;51;38.4;24.4
57798;PMS7003;43626;53.866;30.298;2023-05-10T00:41:37;50.8;37.8;23.6
57798;PMS7003;43626;53.866;30.298;2023-05-10T00:47:05;48.4;36.8;23.4
57798;PMS7003;43626;53.866;30.298;2023-05-10T00:52:05;48.4;37;22.6
57798;PMS7003;43626;53.866;30.298;2023-05-10T00:56:45;47;35.4;23
57798;PMS7003;43626;53.866;30.298;2023-05-10T01:01:23;46.4;37;22.8
57798;PMS7003;43626;53.866;30.298;2023-05-10T01:06:31;47.2;36.2;23
57798;PMS7003;43626;53.866;30.298;2023-05-10T01:11:39;46.6;36.2;23.2
57798;PMS7003;43626;53.866;30.298;2023-05-10T01:16:45;46.4;35.6;22.4
57798;PMS7003;43626;53.866;30.298;2023-05-10T01:21:23;45;34.8;22.2
57798;PMS7003;43626;53.866;30.298;2023-05-10T01:27:15;40;32.8;20.2
57798;PMS7003;43626;53.866;30.298;2023-05-10T01:32:07;44.3;35.5;23.3
57798;PMS7003;43626;53.866;30.298;2023-05-10T01:36:23;42;34;21.2
57798;PMS7003;43626;53.866;30.298;2023-05-10T01:41:51;41;32.4;21
57798;PMS7003;43626;53.866;30.298;2023-05-10T01:46:57;40.6;32.8;20.6
57798;PMS7003;43626;53.866;30.298;2023-05-10T01:51:54;39.4;32.8;20.8
57798;PMS7003;43626;53.866;30.298;2023-05-10T01:56:41;42;33.8;22
57798;PMS7003;43626;53.866;30.298;2023-05-10T02:02:05;40.8;34;21.8
57798;PMS7003;43626;53.866;30.298;2023-05-10T02:07:05;39;32.8;19.6
57798;PMS7003;43626;53.866;30.298;2023-05-10T02:12:05;39;32.8;19.2
57798;PMS7003;43626;53.866;30.298;2023-05-10T02:16:29;37.6;30.6;18.6
57798;PMS7003;43626;53.866;30.298;2023-05-10T02:22:03;36;31.8;20.8
57798;PMS7003;43626;53.866;30.298;2023-05-10T02:26:55;43.6;34.2;22.4
57798;PMS7003;43626;53.866;30.298;2023-05-10T02:31:21;44.8;34.4;21.2
57798;PMS7003;43626;53.866;30.298;2023-05-10T02:36:22;40.8;32.5;21.5
57798;PMS7003;43626;53.866;30.298;2023-05-10T02:42:03;35;30.4;20.4
57798;PMS7003;43626;53.866;30.298;2023-05-10T02:46:31;36.2;30.4;18.6
57798;PMS7003;43626;53.866;30.298;2023-05-10T02:52:05;36.8;31.2;20
57798;PMS7003;43626;53.866;30.298;2023-05-10T02:57:05;38;32.2;20
57798;PMS7003;43626;53.866;30.298;2023-05-10T03:01:21;37.2;31.2;21
57798;PMS7003;43626;53.866;30.298;2023-05-10T03:06:29;35.8;31.2;20
57798;PMS7003;43626;53.866;30.298;2023-05-10T03:11:25;37.2;30.2;19.4
57798;PMS7003;43626;53.866;30.298;2023-05-10T03:16:33;35.8;30.4;19.6
57798;PMS7003;43626;53.866;30.298;2023-05-10T03:21:58;35.4;30;19.8
57798;PMS7003;43626;53.866;30.298;2023-05-10T03:26:23;36.6;31;19.6
57798;PMS7003;43626;53.866;30.298;2023-05-10T03:31:21;35;30.2;19
57798;PMS7003;43626;53.866;30.298;2023-05-10T03:36:49;32.5;28.5;18.8
57798;PMS7003;43626;53.866;30.298;2023-05-10T03:42:05;30.6;27.6;16.8
57798;PMS7003;43626;53.866;30.298;2023-05-10T03:46:37;35.6;30.8;19.4
57798;PMS7003;43626;53.866;30.298;2023-05-10T03:51:41;35;30.6;19
57798;PMS7003;43626;53.866;30.298;2023-05-10T03:56:21;37.4;31.8;19.8
57798;PMS7003;43626;53.866;30.298;2023-05-10T04:02:05;39;32.4;21
57798;PMS7003;43626;53.866;30.298;2023-05-10T04:06:21;40.2;32;21
57798;PMS7003;43626;53.866;30.298;2023-05-10T04:11:37;37.2;32;21.2
57798;PMS7003;43626;53.866;30.298;2023-05-10T04:16:49;39.4;33.2;22.2
57798;PMS7003;43626;53.866;30.298;2023-05-10T04:21:31;39.8;34;21.4
57798;PMS7003;43626;53.866;30.298;2023-05-10T04:26:31;40.4;32.4;21.2
57798;PMS7003;43626;53.866;30.298;2023-05-10T04:31:55;38;32.2;20.6
57798;PMS7003;43626;53.866;30.298;2023-05-10T04:37:05;37.5;32;21.3
57798;PMS7003;43626;53.866;30.298;2023-05-10T04:41:21;39.4;32;21.2
57798;PMS7003;43626;53.866;30.298;2023-05-10T04:46:47;37.4;31;19.4
57798;PMS7003;43626;53.866;30.298;2023-05-10T04:51:55;43.2;35.8;23.2
57798;PMS7003;43626;53.866;30.298;2023-05-10T04:56:53;45;37.2;23.6
57798;PMS7003;43626;53.866;30.298;2023-05-10T05:01:39;40.4;33.8;21.2
57798;PMS7003;43626;53.866;30.298;2023-05-10T05:06:23;39.2;33.2;21.6
57798;PMS7003;43626;53.866;30.298;2023-05-10T05:12:01;38.2;33.6;21.4
57798;PMS7003;43626;53.866;30.298;2023-05-10T05:17:03;31.8;28.8;19.2
57798;PMS7003;43626;53.866;30.298;2023-05-10T05:21:21;32.2;27.4;17.4
57798;PMS7003;43626;53.866;30.298;2023-05-10T05:27:03;33.2;29.6;18.8
57798;PMS7003;43626;53.866;30.298;2023-05-10T05:31:53;30.8;27.6;18.2
57798;PMS7003;43626;53.866;30.298;2023-05-10T05:36:31;29.8;27.3;17.3
57798;PMS7003;43626;53.866;30.298;2023-05-10T05:41:21;26.2;21;14.6
57798;PMS7003;43626;53.866;30.298;2023-05-10T05:47:03;22.8;20.2;14.2
57798;PMS7003;43626;53.866;30.298;2023-05-10T05:51:29;19.8;17.6;12
57798;PMS7003;43626;53.866;30.298;2023-05-10T05:56:53;19.2;16.6;11.6
57798;PMS7003;43626;53.866;30.298;2023-05-10T06:02:03;20.6;17.8;12.6
57798;PMS7003;43626;53.866;30.298;2023-05-10T06:06:31;14.2;12.2;7.8
57798;PMS7003;43626;53.866;30.298;2023-05-10T06:11:37;12;10.8;7.2
57798;PMS7003;43626;53.866;30.298;2023-05-10T06:16:44;17.8;12.6;8.6
57798;PMS7003;43626;53.866;30.298;2023-05-10T06:21:35;15;12.4;8
57798;PMS7003;43626;53.866;30.298;2023-05-10T06:26:53;19;15.4;8.8
57798;PMS7003;43626;53.866;30.298;2023-05-10T06:31:43;18.4;15.4;10
57798;PMS7003;43626;53.866;30.298;2023-05-10T06:36:35;12.3;9.8;6
57798;PMS7003;43626;53.866;30.298;2023-05-10T06:41:45;9.4;8.4;5.4
57798;PMS7003;43626;53.866;30.298;2023-05-10T06:47:01;9.4;7.6;4.8
57798;PMS7003;43626;53.866;30.298;2023-05-10T06:51:29;9.4;8;4.8
57798;PMS7003;43626;53.866;30.298;2023-05-10T06:56:35;9.4;8;5.6
57798;PMS7003;43626;53.866;30.298;2023-05-10T07:01:43;8.8;7.6;5
57798;PMS7003;43626;53.866;30.298;2023-05-10T07:06:59;8.6;7.2;4.6
57798;PMS7003;43626;53.866;30.298;2023-05-10T07:11:49;8.6;7.4;5.4
57798;PMS7003;43626;53.866;30.298;2023-05-10T07:16:27;10;8.8;5.4
57798;PMS7003;43626;53.866;30.298;2023-05-10T07:22:03;8.8;8;5.4
57798;PMS7003;43626;53.866;30.298;2023-05-10T07:26:43;9.6;7.4;4.8
57798;PMS7003;43626;53.866;30.298;2023-05-10T07:31:29;9;8.6;5.8
57798;PMS7003;43626;53.866;30.298;2023-05-10T07:36:27;9.4;8.4;5.6
57798;PMS7003;43626;53.866;30.298;2023-05-10T07:42:03;10;8.5;5.5
57798;PMS7003;43626;53.866;30.298;2023-05-10T07:46:21;10.2;8.8;5.6
57798;PMS7003;43626;53.866;30.298;2023-05-10T07:52:02;9;7.4;4.8
57798;PMS7003;43626;53.866;30.298;2023-05-10T07:57:01;10.4;9.4;6.2
57798;PMS7003;43626;53.866;30.298;2023-05-10T08:01:30;9.8;9;6.2
57798;PMS7003;43626;53.866;30.298;2023-05-10T08:06:37;9.2;8.2;5.6
57798;PMS7003;43626;53.866;30.298;2023-05-10T08:11:51;10.2;9;6.4
57798;PMS7003;43626;53.866;30.298;2023-05-10T08:17:01;11;10;5.8
57798;PMS7003;43626;53.866;30.298;2023-05-10T08:22:01;8.8;7.8;5.4
57798;PMS7003;43626;53.866;30.298;2023-05-10T08:26:21;8.2;7;4.8
57798;PMS7003;43626;53.866;30.298;2023-05-10T08:32:03;11;9;6.2
57798;PMS7003;43626;53.866;30.298;2023-05-10T08:36:53;9;8.2;6
57798;PMS7003;43626;53.866;30.298;2023-05-10T08:41:29;10.5;8.5;5.8
57798;PMS7003;43626;53.866;30.298;2023-05-10T08:46:37;11;9.4;5.8
57798;PMS7003;43626;53.866;30.298;2023-05-10T08:52:04;9.2;8.6;5.6
57798;PMS7003;43626;53.866;30.298;2023-05-10T08:56:21;9.2;8.4;5.4
57798;PMS7003;43626;53.866;30.298;2023-05-10T09:01:37;9.2;8.6;5.6
57798;PMS7003;43626;53.866;30.298;2023-05-10T09:07:01;10.8;9;5.6
57798;PMS7003;43626;53.866;30.298;2023-05-10T09:11:29;10.6;9.2;6
57798;PMS7003;43626;53.866;30.298;2023-05-10T09:16:37;8.8;7.8;5.4
57798;PMS7003;43626;53.866;30.298;2023-05-10T09:21:43;11;9;6.4
57798;PMS7003;43626;53.866;30.298;2023-05-10T09:26:22;8.8;7.6;5
57798;PMS7003;43626;53.866;30.298;2023-05-10T09:31:53;10.2;8.8;5.8
57798;PMS7003;43626;53.866;30.298;2023-05-10T09:36:51;9.6;8.4;5.6
57798;PMS7003;43626;53.866;30.298;2023-05-10T09:42:01;10.8;9;5.8
57798;PMS7003;43626;53.866;30.298;2023-05-10T09:46:49;9;7.8;5
57798;PMS7003;43626;53.866;30.298;2023-05-10T09:52:02;10.4;8.8;6
57798;PMS7003;43626;53.866;30.298;2023-05-10T09:56:35;11.4;9;5.6
57798;PMS7003;43626;53.866;30.298;2023-05-10T10:01:22;10.6;9.2;6.4
57798;PMS7003;43626;53.866;30.298;2023-05-10T10:06:38;9.6;9;6
57798;PMS7003;43626;53.866;30.298;2023-05-10T10:12:03;10.4;9;6
57798;PMS7003;43626;53.866;30.298;2023-05-10T10:16:35;11;9.4;5.8
57798;PMS7003;43626;53.866;30.298;2023-05-10T10:21:35;10;9.2;5.8
57798;PMS7003;43626;53.866;30.298;2023-05-10T10:27:06;9.8;8.4;6
57798;PMS7003;43626;53.866;30.298;2023-05-10T10:31:45;11.4;9.6;6
57798;PMS7003;43626;53.866;30.298;2023-05-10T10:36:21;12.4;9.8;6
57798;PMS7003;43626;53.866;30.298;2023-05-10T10:41:38;10.8;9;6.3
57798;PMS7003;43626;53.866;30.298;2023-05-10T10:47:02;11.8;9.8;6.6
57798;PMS7003;43626;53.866;30.298;2023-05-10T10:51:21;11.2;9.2;5.8
57798;PMS7003;43626;53.866;30.298;2023-05-10T10:57:15;11.6;9.4;6.6
57798;PMS7003;43626;53.866;30.298;2023-05-10T11:02:01;10.4;9.2;6.6
57798;PMS7003;43626;53.866;30.298;2023-05-10T11:06:28;9.8;8.4;6
57798;PMS7003;43626;53.866;30.298;2023-05-10T11:11:29;9.6;8.4;5.6
57798;PMS7003;43626;53.866;30.298;2023-05-10T11:16:51;11.2;9.8;6.2
57798;PMS7003;43626;53.866;30.298;2023-05-10T11:21:46;12.6;10.8;7.4
57798;PMS7003;43626;53.866;30.298;2023-05-10T11:26:53;13.4;10.2;6.8
57798;PMS7003;43626;53.866;30.298;2023-05-10T11:31:51;17.2;14.4;10
57798;PMS7003;43626;53.866;30.298;2023-05-10T11:37:01;11.8;10.6;7.2
57798;PMS7003;43626;53.866;30.298;2023-05-10T11:41:46;12.6;10.2;6.2
57798;PMS7003;43626;53.866;30.298;2023-05-10T11:46:22;18;17;11.3
57798;PMS7003;43626;53.866;30.298;2023-05-10T11:51:22;12;10.4;6.6
57798;PMS7003;43626;53.866;30.298;2023-05-10T11:57:02;12.2;10.4;7.2
57798;PMS7003;43626;53.866;30.298;2023-05-10T12:01:30;10.6;9;6
57798;PMS7003;43626;53.866;30.298;2023-05-10T12:06:53;11.4;10;6.6
57798;PMS7003;43626;53.866;30.298;2023-05-10T12:11:55;10;9;6.4
57798;PMS7003;43626;53.866;30.298;2023-05-10T12:16:29;10.6;9.8;6.6
57798;PMS7003;43626;53.866;30.298;2023-05-10T12:21:37;9.2;8;5.2
57798;PMS7003;43626;53.866;30.298;2023-05-10T12:26:36;10.6;9.4;6.4
57798;PMS7003;43626;53.866;30.298;2023-05-10T12:31:21;24;21.2;14.8
57798;PMS7003;43626;53.866;30.298;2023-05-10T12:36:45;16.2;13.6;9.2
57798;PMS7003;43626;53.866;30.298;2023-05-10T12:41:45;17;14.6;10.4
57798;PMS7003;43626;53.866;30.298;2023-05-10T12:46:21;10.5;9.3;6.8
57798;PMS7003;43626;53.866;30.298;2023-05-10T12:51:45;11.8;9.8;7.2
57798;PMS7003;43626;53.866;30.298;2023-05-10T12:57:01;9.4;8.8;6.2
57798;PMS7003;43626;53.866;30.298;2023-05-10T13:01:35;11.2;10.4;7
57798;PMS7003;43626;53.866;30.298;2023-05-10T13:06:41;10;9.4;5.6
57798;PMS7003;43626;53.866;30.298;2023-05-10T13:11:31;10.4;8.4;6
57798;PMS7003;43626;53.866;30.298;2023-05-10T13:17:05;10.4;9;6
57798;PMS7003;43626;53.866;30.298;2023-05-10T13:21:21;9.2;8.4;5.2
57798;PMS7003;43626;53.866;30.298;2023-05-10T13:26:37;9.8;8.6;6.2
57798;PMS7003;43626;53.866;30.298;2023-05-10T13:32:05;9.6;8.6;6
57798;PMS7003;43626;53.866;30.298;2023-05-10T13:36:46;10.4;9;6
57798;PMS7003;43626;53.866;30.298;2023-05-10T13:41:37;12.4;9.8;6.4
57798;PMS7003;43626;53.866;30.298;2023-05-10T13:46:35;10.8;9.8;6.3
57798;PMS7003;43626;53.866;30.298;2023-05-10T13:52:03;8;7.2;5.2
57798;PMS7003;43626;53.866;30.298;2023-05-10T13:56:37;9.6;8.4;5.6
57798;PMS7003;43626;53.866;30.298;2023-05-10T14:02:04;7.8;7.2;5.4
57798;PMS7003;43626;53.866;30.298;2023-05-10T14:07:03;10.4;9.4;6.2
57798;PMS7003;43626;53.866;30.298;2023-05-10T14:11:31;8.6;7.6;5.2
57798;PMS7003;43626;53.866;30.298;2023-05-10T14:16:41;8.2;7.2;4.2
57798;PMS7003;43626;53.866;30.298;2023-05-10T14:21:53;8.8;7.4;4.8
57798;PMS7003;43626;53.866;30.298;2023-05-10T14:26:47;8.2;7.8;5.2
57798;PMS7003;43626;53.866;30.298;2023-05-10T14:31:55;8.6;8.2;5.4
57798;PMS7003;43626;53.866;30.298;2023-05-10T14:36:21;9.6;8.6;5.2
57798;PMS7003;43626;53.866;30.298;2023-05-10T14:42:03;11.4;8.4;5.4
57798;PMS7003;43626;53.866;30.298;2023-05-10T14:46:47;8.8;8.3;5.8
57798;PMS7003;43626;53.866;30.298;2023-05-10T14:51:35;10.8;8;6
57798;PMS7003;43626;53.866;30.298;2023-05-10T14:56:53;9.2;8.4;5.6
57798;PMS7003;43626;53.866;30.298;2023-05-10T15:02:04;8.6;7.4;4.8
57798;PMS7003;43626;53.866;30.298;2023-05-10T15:06:30;8.8;7.6;4.6
57798;PMS7003;43626;53.866;30.298;2023-05-10T15:11:53;9.4;8;5.2
57798;PMS7003;43626;53.866;30.298;2023-05-10T15:16:53;8.2;6.6;4.2
57798;PMS7003;43626;53.866;30.298;2023-05-10T15:21:21;10.6;8.8;5.8
57798;PMS7003;43626;53.866;30.298;2023-05-10T15:26:47;9.4;8.6;5.6
57798;PMS7003;43626;53.866;30.298;2023-05-10T15:31:46;10.6;7.8;5
57798;PMS7003;43626;53.866;30.298;2023-05-10T15:36:21;9.6;8.6;5.4
57798;PMS7003;43626;53.866;30.298;2023-05-10T15:41:55;8.6;8;5.2
57798;PMS7003;43626;53.866;30.298;2023-05-10T15:47:04;8.5;6.8;4.8
57798;PMS7003;43626;53.866;30.298;2023-05-10T15:51:29;15.8;13.8;9.2
57798;PMS7003;43626;53.866;30.298;2023-05-10T15:56:47;12;10.6;6.8
57798;PMS7003;43626;53.866;30.298;2023-05-10T16:02:04;11.2;9.8;6.4
57798;PMS7003;43626;53.866;30.298;2023-05-10T16:06:38;12.4;10.6;7.2
57798;PMS7003;43626;53.866;30.298;2023-05-10T16:11:41;13.2;11.6;7.6
57798;PMS7003;43626;53.866;30.298;2023-05-10T16:16:29;11.2;9.8;7.2
57798;PMS7003;43626;53.866;30.298;2023-05-10T16:22:04;11.4;9.6;6.6
57798;PMS7003;43626;53.866;30.298;2023-05-10T16:26:37;10.4;9.8;6.6
57798;PMS7003;43626;53.866;30.298;2023-05-10T16:31:27;13;11.2;7.4
57798;PMS7003;43626;53.866;30.298;2023-05-10T16:37:03;18;15.6;10
57798;PMS7003;43626;53.866;30.298;2023-05-10T16:41:45;17.8;15.8;10.2
57798;PMS7003;43626;53.866;30.298;2023-05-10T16:46:21;15.6;13;7.8
57798;PMS7003;43626;53.866;30.298;2023-05-10T16:51:22;13.3;11.8;8
57798;PMS7003;43626;53.866;30.298;2023-05-10T16:57:03;13.2;11.8;8.2
57798;PMS7003;43626;53.866;30.298;2023-05-10T17:01:35;13;11.2;7.6
57798;PMS7003;43626;53.866;30.298;2023-05-10T17:07:04;15.2;12.4;8.8
57798;PMS7003;43626;53.866;30.298;2023-05-10T17:12:04;15;12.8;8.6
57798;PMS7003;43626;53.866;30.298;2023-05-10T17:16:32;18.4;15;10.4
57798;PMS7003;43626;53.866;30.298;2023-05-10T17:21:56;25;20.4;13.4
57798;PMS7003;43626;53.866;30.298;2023-05-10T17:26:34;22;20.4;14
57798;PMS7003;43626;53.866;30.298;2023-05-10T17:31:48;54.4;41.8;25.4
57798;PMS7003;43626;53.866;30.298;2023-05-10T17:36:54;42;34.8;22.6
57798;PMS7003;43626;53.866;30.298;2023-05-10T17:41:44;46.2;36.2;25.2
57798;PMS7003;43626;53.866;30.298;2023-05-10T17:47:04;49.8;39.2;25.6
57798;PMS7003;43626;53.866;30.298;2023-05-10T17:51:48;43;35;22.8
57798;PMS7003;43626;53.866;30.298;2023-05-10T17:56:22;45.6;36;22.8
57798;PMS7003;43626;53.866;30.298;2023-05-10T18:01:22;48.6;37;23.4
57798;PMS7003;43626;53.866;30.298;2023-05-10T18:07:04;51;39.2;24.6
57798;PMS7003;43626;53.866;30.298;2023-05-10T18:11:22;50.4;38.6;25
57798;PMS7003;43626;53.866;30.298;2023-05-10T18:16:54;55.2;41;26.6
57798;PMS7003;43626;53.866;30.298;2023-05-10T18:21:52;63;47.4;30
57798;PMS7003;43626;53.866;30.298;2023-05-10T18:26:30;63.2;47.2;29
57798;PMS7003;43626;53.866;30.298;2023-05-10T18:31:48;64.2;47.4;29.4
57798;PMS7003;43626;53.866;30.298;2023-05-10T18:36:44;59.8;45.8;28.2
57798;PMS7003;43626;53.866;30.298;2023-05-10T18:41:22;56.8;43.2;27.6
57798;PMS7003;43626;53.866;30.298;2023-05-10T18:46:56;56;43.2;27
57798;PMS7003;43626;53.866;30.298;2023-05-10T18:52:04;53.8;41.3;25.8
57798;PMS7003;43626;53.866;30.298;2023-05-10T18:56:32;51.4;39.6;25.2
57798;PMS7003;43626;53.866;30.298;2023-05-10T19:02:04;52.6;42.2;26.2
57798;PMS7003;43626;53.866;30.298;2023-05-10T19:06:56;51.6;39.8;25.8
57798;PMS7003;43626;53.866;30.298;2023-05-10T19:11:54;51.6;40.8;26.2
57798;PMS7003;43626;53.866;30.298;2023-05-10T19:16:22;56.4;43.2;26.6
57798;PMS7003;43626;53.866;30.298;2023-05-10T19:21:54;56.2;42.4;26.8
57798;PMS7003;43626;53.866;30.298;2023-05-10T19:27:04;59.8;44.4;27.6
57798;PMS7003;43626;53.866;30.298;2023-05-10T19:32:08;60.8;45.2;28.2
57798;PMS7003;43626;53.866;30.298;2023-05-10T19:36:22;67.6;50;29.8
57798;PMS7003;43626;53.866;30.298;2023-05-10T19:42:08;72.2;54.4;31.2
57798;PMS7003;43626;53.866;30.298;2023-05-10T19:46:58;71;52;31
57798;PMS7003;43626;53.866;30.298;2023-05-10T19:51:32;61.8;46.8;28
57798;PMS7003;43626;53.866;30.298;2023-05-10T19:56:30;63.2;47.2;28.8
57798;PMS7003;43626;53.866;30.298;2023-05-10T20:02:04;59.6;45.6;27.4
57798;PMS7003;43626;53.866;30.298;2023-05-10T20:06:22;54.6;42.4;26.4
57798;PMS7003;43626;53.866;30.298;2023-05-10T20:12:04;52.2;39.8;25.6
57798;PMS7003;43626;53.866;30.298;2023-05-10T20:17:04;48.4;37.4;24.4
57798;PMS7003;43626;53.866;30.298;2023-05-10T20:21:22;48.2;36.6;23
57798;PMS7003;43626;53.866;30.298;2023-05-10T20:26:32;49.2;38.2;24.2
57798;PMS7003;43626;53.866;30.298;2023-05-10T20:31:56;48.2;37.2;23.6
57798;PMS7003;43626;53.866;30.298;2023-05-10T20:36:50;48.6;37.6;23.4
57798;PMS7003;43626;53.866;30.298;2023-05-10T20:41:54;45;35.8;22.6
57798;PMS7003;43626;53.866;30.298;2023-05-10T20:46:22;46.2;36.6;23.2
57798;PMS7003;43626;53.866;30.298;2023-05-10T20:51:58;43.3;34.3;22
57798;PMS7003;43626;53.866;30.298;2023-05-10T20:56:50;44.6;34.8;22.4
57798;PMS7003;43626;53.866;30.298;2023-05-10T21:01:22;42.6;34.2;22
57798;PMS7003;43626;53.866;30.298;2023-05-10T21:06:38;44.8;36.4;23.6
57798;PMS7003;43626;53.866;30.298;2023-05-10T21:12:02;46;36.6;22.8
57798;PMS7003;43626;53.866;30.298;2023-05-10T21:16:38;48.4;37.8;23.6
57798;PMS7003;43626;53.866;30.298;2023-05-10T21:22:04;52;39.6;24.4
57798;PMS7003;43626;53.866;30.298;2023-05-10T21:26:24;52.2;39.8;25
57798;PMS7003;43626;53.866;30.298;2023-05-10T21:31:22;53.8;41.4;25.6
57798;PMS7003;43626;53.866;30.298;2023-05-10T21:37:04;55;43;26.8
57798;PMS7003;43626;53.866;30.298;2023-05-10T21:41:46;58.6;43.2;25.8
57798;PMS7003;43626;53.866;30.298;2023-05-10T21:46:32;65.4;49;28.8
57798;PMS7003;43626;53.866;30.298;2023-05-10T21:51:56;61.4;46;28.2
57798;PMS7003;43626;53.866;30.298;2023-05-10T21:57:06;62.8;46.3;28.8
57798;PMS7003;43626;53.866;30.298;2023-05-10T22:01:46;62.2;46;28.4
57798;PMS7003;43626;53.866;30.298;2023-05-10T22:06:48;62.8;46.4;28.6
57798;PMS7003;43626;53.866;30.298;2023-05-10T22:11:58;57.4;43.6;27.8
57798;PMS7003;43626;53.866;30.298;2023-05-10T22:16:54;57;43.6;27
57798;PMS7003;43626;53.866;30.298;2023-05-10T22:21:40;56.2;43;27
57798;PMS7003;43626;53.866;30.298;2023-05-10T22:26:54;57.4;44.4;28.2
57798;PMS7003;43626;53.866;30.298;2023-05-10T22:32:04;56.6;43;27.2
57798;PMS7003;43626;53.866;30.298;2023-05-10T22:37:04;56.4;43.4;27.4
57798;PMS7003;43626;53.866;30.298;2023-05-10T22:41:22;54;42.2;27
57798;PMS7003;43626;53.866;30.298;2023-05-10T22:46:46;54.2;41.4;26.2
57798;PMS7003;43626;53.866;30.298;2023-05-10T22:51:48;47.6;37.6;24.6
57798;PMS7003;43626;53.866;30.298;2023-05-10T22:56:32;47.8;36.5;23.5
57798;PMS7003;43626;53.866;30.298;2023-05-10T23:01:22;43.6;34.2;22.4
57798;PMS7003;43626;53.866;30.298;2023-05-10T23:07:02;40.8;32.6;20.8
57798;PMS7003;43626;53.866;30.298;2023-05-10T23:11:22;41.6;34;20.8
57798;PMS7003;43626;53.866;30.298;2023-05-10T23:16:52;39.2;31.6;21.4
57798;PMS7003;43626;53.866;30.298;2023-05-10T23:22:02;34.4;30;19.8
57798;PMS7003;43626;53.866;30.298;2023-05-10T23:26:22;30.8;26.8;17.4
57798;PMS7003;43626;53.866;30.298;2023-05-10T23:31:38;31.2;26.4;18
57798;PMS7003;43626;53.866;30.298;2023-05-10T23:36:42;27.8;23.8;15
57798;PMS7003;43626;53.866;30.298;2023-05-10T23:41:30;24.8;21.8;14.8
57798;PMS7003;43626;53.866;30.298;2023-05-10T23:46:54;23.8;22;13.4
57798;PMS7003;43626;53.866;30.298;2023-05-10T23:51:22;25.6;20.4;13.6
57798;PMS7003;43626;53.866;30.298;2023-05-10T23:57:00;27.3;24;15.5
